FGYGM LFPN-LFPN
Flight info
| Callsign | FGYGM |
|---|---|
| Flight time | 0h 19m |
| Altitude | 7000 |
| Route | PACIQ |
| Aircraft | PA34/L-SDFGRY/S |
Departure
| Time | 2026-04-25 10:31 |
|---|---|
| Airport | Toussus-le-Noble Airport (LFPN) |
Arrival
| Time | 2026-04-25 10:51 |
|---|---|
| Airport | Toussus-le-Noble Airport (LFPN) |
| Time | Latitude | Longitude | Altitude | Speed | Heading |
|---|---|---|---|---|---|
| 2026-04-25 10:22 | 49.44529 | 2.26265 | 2024 ft | 138 kts | 172° |
| 2026-04-25 10:23 | 49.43565 | 2.26219 | 2031 ft | 136 kts | 179° |
| 2026-04-25 10:23 | 49.42630 | 2.26150 | 2020 ft | 136 kts | 180° |
| 2026-04-25 10:23 | 49.41676 | 2.26081 | 2031 ft | 140 kts | 179° |
| 2026-04-25 10:23 | 49.40709 | 2.26016 | 2017 ft | 137 kts | 179° |
| 2026-04-25 10:24 | 49.39766 | 2.25930 | 2018 ft | 135 kts | 179° |
| 2026-04-25 10:24 | 49.38825 | 2.25847 | 2019 ft | 136 kts | 180° |
| 2026-04-25 10:24 | 49.37874 | 2.25765 | 2021 ft | 135 kts | 179° |
| 2026-04-25 10:24 | 49.36930 | 2.25678 | 2020 ft | 134 kts | 180° |
| 2026-04-25 10:25 | 49.35994 | 2.25590 | 2025 ft | 134 kts | 180° |
| 2026-04-25 10:25 | 49.35033 | 2.25513 | 2024 ft | 141 kts | 180° |
| 2026-04-25 10:25 | 49.34068 | 2.25439 | 2017 ft | 136 kts | 180° |
| 2026-04-25 10:25 | 49.33143 | 2.25386 | 2017 ft | 134 kts | 179° |
| 2026-04-25 10:26 | 49.32214 | 2.25335 | 2039 ft | 133 kts | 179° |
| 2026-04-25 10:26 | 49.31266 | 2.25288 | 2019 ft | 134 kts | 179° |
| 2026-04-25 10:26 | 49.30328 | 2.25238 | 2018 ft | 135 kts | 179° |
| 2026-04-25 10:26 | 49.29390 | 2.25172 | 2021 ft | 135 kts | 180° |
| 2026-04-25 10:27 | 49.28436 | 2.25099 | 2024 ft | 142 kts | 181° |
| 2026-04-25 10:27 | 49.27436 | 2.25038 | 2019 ft | 149 kts | 180° |
| 2026-04-25 10:27 | 49.26399 | 2.24965 | 2103 ft | 146 kts | 179° |
| 2026-04-25 10:27 | 49.25426 | 2.24886 | 2265 ft | 134 kts | 180° |
| 2026-04-25 10:28 | 49.24502 | 2.24803 | 2457 ft | 136 kts | 180° |
| 2026-04-25 10:28 | 49.23573 | 2.24730 | 2620 ft | 136 kts | 180° |
| 2026-04-25 10:28 | 49.22618 | 2.24691 | 2804 ft | 138 kts | 179° |
| 2026-04-25 10:28 | 49.21645 | 2.24649 | 2972 ft | 148 kts | 179° |
| 2026-04-25 10:29 | 49.20606 | 2.24611 | 2962 ft | 147 kts | 179° |
| 2026-04-25 10:29 | 49.19583 | 2.24573 | 2961 ft | 149 kts | 179° |
| 2026-04-25 10:29 | 49.18548 | 2.24542 | 2949 ft | 147 kts | 180° |
| 2026-04-25 10:29 | 49.17522 | 2.24501 | 2963 ft | 148 kts | 180° |
| 2026-04-25 10:30 | 49.16486 | 2.24452 | 2948 ft | 147 kts | 179° |
| 2026-04-25 10:30 | 49.15809 | 2.24402 | 2946 ft | 147 kts | 180° |
| 2026-04-25 10:30 | 49.14545 | 2.23633 | 2947 ft | 150 kts | 213° |
| 2026-04-25 10:30 | 49.13655 | 2.22791 | 2949 ft | 154 kts | 210° |
| 2026-04-25 10:31 | 49.12759 | 2.21943 | 2955 ft | 151 kts | 210° |
| 2026-04-25 10:31 | 49.11872 | 2.21090 | 2955 ft | 150 kts | 210° |
| 2026-04-25 10:31 | 49.10991 | 2.20230 | 2954 ft | 151 kts | 211° |
| 2026-04-25 10:31 | 49.10102 | 2.19355 | 2958 ft | 153 kts | 211° |
| 2026-04-25 10:32 | 49.09210 | 2.18476 | 2971 ft | 155 kts | 211° |
| 2026-04-25 10:32 | 49.08287 | 2.17582 | 2963 ft | 159 kts | 211° |
| 2026-04-25 10:32 | 49.07360 | 2.16707 | 2951 ft | 153 kts | 210° |
| 2026-04-25 10:32 | 49.06469 | 2.15853 | 2949 ft | 151 kts | 210° |
| 2026-04-25 10:33 | 49.05580 | 2.15004 | 2957 ft | 152 kts | 211° |
| 2026-04-25 10:33 | 49.04677 | 2.14166 | 2951 ft | 151 kts | 211° |
| 2026-04-25 10:33 | 49.03775 | 2.13339 | 2952 ft | 152 kts | 211° |
| 2026-04-25 10:33 | 49.02877 | 2.12509 | 2945 ft | 153 kts | 211° |
| 2026-04-25 10:34 | 49.01972 | 2.11675 | 2943 ft | 151 kts | 210° |
| 2026-04-25 10:34 | 49.01078 | 2.10849 | 2950 ft | 149 kts | 211° |
| 2026-04-25 10:34 | 49.00181 | 2.10019 | 2953 ft | 152 kts | 211° |
| 2026-04-25 10:34 | 48.99267 | 2.09174 | 2957 ft | 153 kts | 211° |
| 2026-04-25 10:35 | 48.98366 | 2.08345 | 2960 ft | 153 kts | 211° |
| 2026-04-25 10:35 | 48.97443 | 2.07495 | 2961 ft | 157 kts | 211° |
| 2026-04-25 10:35 | 48.96506 | 2.06640 | 2956 ft | 156 kts | 210° |
| 2026-04-25 10:35 | 48.95582 | 2.05789 | 2961 ft | 154 kts | 211° |
| 2026-04-25 10:36 | 48.94662 | 2.04938 | 2956 ft | 156 kts | 211° |
| 2026-04-25 10:36 | 48.93743 | 2.04078 | 2949 ft | 153 kts | 211° |
| 2026-04-25 10:36 | 48.92832 | 2.03245 | 2947 ft | 151 kts | 211° |
| 2026-04-25 10:36 | 48.91944 | 2.02428 | 2955 ft | 151 kts | 211° |
| 2026-04-25 10:37 | 48.91030 | 2.01577 | 2957 ft | 155 kts | 211° |
| 2026-04-25 10:37 | 48.90108 | 2.00726 | 2949 ft | 153 kts | 211° |
| 2026-04-25 10:37 | 48.89507 | 2.00171 | 2949 ft | 151 kts | 211° |
| 2026-04-25 10:37 | 48.88320 | 1.99081 | 2947 ft | 149 kts | 211° |
| 2026-04-25 10:38 | 48.87430 | 1.98267 | 2946 ft | 149 kts | 211° |
| 2026-04-25 10:38 | 48.86841 | 1.97728 | 2955 ft | 150 kts | 210° |
| 2026-04-25 10:38 | 48.85943 | 1.96900 | 2960 ft | 153 kts | 211° |
| 2026-04-25 10:38 | 48.85021 | 1.96049 | 2959 ft | 155 kts | 211° |
| 2026-04-25 10:39 | 48.84098 | 1.95202 | 2960 ft | 154 kts | 211° |
| 2026-04-25 10:39 | 48.83175 | 1.94352 | 2963 ft | 155 kts | 210° |
| 2026-04-25 10:39 | 48.82256 | 1.93493 | 2964 ft | 156 kts | 211° |
| 2026-04-25 10:39 | 48.81321 | 1.92644 | 2947 ft | 154 kts | 210° |
| 2026-04-25 10:40 | 48.80414 | 1.91802 | 2943 ft | 152 kts | 211° |
| 2026-04-25 10:40 | 48.79517 | 1.90978 | 2947 ft | 150 kts | 210° |
| 2026-04-25 10:40 | 48.78629 | 1.90148 | 2957 ft | 150 kts | 211° |
| 2026-04-25 10:40 | 48.77717 | 1.89326 | 2947 ft | 153 kts | 211° |
| 2026-04-25 10:41 | 48.76826 | 1.88506 | 2945 ft | 151 kts | 211° |
| 2026-04-25 10:41 | 48.75926 | 1.87677 | 2945 ft | 151 kts | 211° |
| 2026-04-25 10:41 | 48.75065 | 1.86889 | 2930 ft | 135 kts | 210° |
| 2026-04-25 10:41 | 48.74295 | 1.86181 | 2930 ft | 124 kts | 211° |
| 2026-04-25 10:42 | 48.73592 | 1.85542 | 2927 ft | 114 kts | 211° |
| 2026-04-25 10:42 | 48.72925 | 1.84932 | 2930 ft | 111 kts | 211° |
| 2026-04-25 10:42 | 48.72260 | 1.84325 | 2925 ft | 109 kts | 210° |
| 2026-04-25 10:42 | 48.71594 | 1.84445 | 2907 ft | 102 kts | 131° |
| 2026-04-25 10:43 | 48.71225 | 1.85344 | 2924 ft | 102 kts | 123° |
| 2026-04-25 10:43 | 48.70827 | 1.86241 | 2925 ft | 102 kts | 121° |
| 2026-04-25 10:43 | 48.70433 | 1.87129 | 2927 ft | 100 kts | 121° |
| 2026-04-25 10:43 | 48.70058 | 1.87987 | 2936 ft | 92 kts | 121° |
| 2026-04-25 10:44 | 48.69825 | 1.88829 | 2863 ft | 83 kts | 104° |
| 2026-04-25 10:44 | 48.69783 | 1.89703 | 2872 ft | 86 kts | 87° |
| 2026-04-25 10:44 | 48.69813 | 1.90608 | 2930 ft | 88 kts | 83° |
| 2026-04-25 10:44 | 48.69877 | 1.91557 | 2920 ft | 93 kts | 81° |
| 2026-04-25 10:45 | 48.70027 | 1.92517 | 2887 ft | 93 kts | 71° |
| 2026-04-25 10:45 | 48.70234 | 1.93395 | 2848 ft | 83 kts | 68° |
| 2026-04-25 10:45 | 48.70440 | 1.94214 | 2775 ft | 84 kts | 68° |
| 2026-04-25 10:45 | 48.70644 | 1.95062 | 2688 ft | 87 kts | 69° |
| 2026-04-25 10:46 | 48.70872 | 1.95889 | 2542 ft | 88 kts | 66° |
| 2026-04-25 10:46 | 48.71113 | 1.96722 | 2407 ft | 87 kts | 64° |
| 2026-04-25 10:46 | 48.71382 | 1.97540 | 2190 ft | 86 kts | 64° |
| 2026-04-25 10:46 | 48.71639 | 1.98317 | 2036 ft | 80 kts | 62° |
| 2026-04-25 10:47 | 48.71892 | 1.99069 | 2004 ft | 81 kts | 61° |
| 2026-04-25 10:47 | 48.72135 | 1.99840 | 1932 ft | 80 kts | 65° |
| 2026-04-25 10:47 | 48.72367 | 2.00620 | 1852 ft | 82 kts | 65° |
| 2026-04-25 10:47 | 48.72593 | 2.01397 | 1747 ft | 80 kts | 67° |
| 2026-04-25 10:48 | 48.72820 | 2.02158 | 1583 ft | 77 kts | 64° |
| 2026-04-25 10:48 | 48.73048 | 2.02875 | 1470 ft | 72 kts | 63° |
| 2026-04-25 10:48 | 48.73284 | 2.03587 | 1394 ft | 83 kts | 62° |
| 2026-04-25 10:48 | 48.73508 | 2.04394 | 1382 ft | 82 kts | 66° |
| 2026-04-25 10:49 | 48.73717 | 2.05166 | 1223 ft | 81 kts | 66° |
| 2026-04-25 10:49 | 48.73917 | 2.05929 | 1089 ft | 75 kts | 65° |
| 2026-04-25 10:49 | 48.74121 | 2.06681 | 1065 ft | 81 kts | 65° |
| 2026-04-25 10:49 | 48.74364 | 2.07450 | 960 ft | 79 kts | 59° |
| 2026-04-25 10:50 | 48.74627 | 2.08155 | 814 ft | 79 kts | 58° |
| 2026-04-25 10:50 | 48.74878 | 2.08918 | 701 ft | 80 kts | 59° |
| 2026-04-25 10:50 | 48.75076 | 2.09683 | 570 ft | 76 kts | 64° |
| 2026-04-25 10:50 | 48.75244 | 2.10423 | 511 ft | 66 kts | 70° |
| 2026-04-25 10:51 | 48.75359 | 2.10933 | 506 ft | 33 kts | 70° |
| 2026-04-25 10:51 | 48.75415 | 2.11199 | 504 ft | 23 kts | 81° |
| 2026-04-25 10:51 | 48.75380 | 2.11426 | 509 ft | 21 kts | 110° |
| 2026-04-25 10:51 | 48.75317 | 2.11576 | 511 ft | 16 kts | 157° |
| 2026-04-25 10:52 | 48.75218 | 2.11517 | 511 ft | 18 kts | 245° |
| 2026-04-25 10:52 | 48.75183 | 2.11364 | 511 ft | 13 kts | 253° |
| 2026-04-25 10:52 | 48.75149 | 2.11220 | 511 ft | 15 kts | 252° |
| 2026-04-25 10:52 | 48.75119 | 2.11076 | 511 ft | 12 kts | 252° |
| 2026-04-25 10:53 | 48.75052 | 2.11004 | 511 ft | 14 kts | 184° |
| 2026-04-25 10:53 | 48.74953 | 2.10960 | 511 ft | 16 kts | 224° |
| 2026-04-25 10:53 | 48.74882 | 2.10821 | 511 ft | 18 kts | 232° |
| 2026-04-25 10:53 | 48.74848 | 2.10681 | 511 ft | 15 kts | 268° |
| 2026-04-25 10:54 | 48.74845 | 2.10513 | 511 ft | 17 kts | 268° |
| 2026-04-25 10:54 | 48.74842 | 2.10394 | 511 ft | 17 kts | 268° |
| 2026-04-25 10:54 | 48.74835 | 2.10138 | 511 ft | 19 kts | 268° |
| 2026-04-25 10:54 | 48.74826 | 2.09994 | 511 ft | 9 kts | 228° |
| 2026-04-25 10:55 | 48.74759 | 2.09991 | 511 ft | 11 kts | 178° |
| 2026-04-25 10:55 | 48.74704 | 2.09994 | 511 ft | 6 kts | 178° |
| 2026-04-25 10:55 | 48.74698 | 2.10007 | 511 ft | 1 kts | 82° |
| 2026-04-25 10:55 | 48.74695 | 2.10032 | 511 ft | 2 kts | 144° |
| 2026-04-25 10:56 | 48.74690 | 2.10036 | 511 ft | 0 kts | 162° |